createdAt,value
2018-02-16T00:00:23.626Z,86.85
2018-02-16T00:02:50.872Z,87.02
2018-02-16T00:05:17.564Z,86.95
2018-02-16T00:07:44.947Z,86.68
2018-02-16T00:10:11.615Z,86.39
2018-02-16T00:12:38.243Z,86.66
2018-02-16T00:15:04.862Z,86.57
2018-02-16T00:17:31.466Z,86.63
2018-02-16T00:19:58.123Z,86.68
2018-02-16T00:22:24.758Z,86.75
2018-02-16T00:24:51.366Z,86.61
2018-02-16T00:27:18.013Z,86.61
2018-02-16T00:29:45.352Z,86.62
2018-02-16T00:32:11.957Z,86.72
2018-02-16T00:34:38.577Z,86.68
2018-02-16T00:37:05.297Z,86.85
2018-02-16T00:39:31.960Z,86.58
2018-02-16T00:41:58.605Z,86.70
2018-02-16T00:44:25.204Z,86.83
2018-02-16T00:46:52.538Z,86.84
2018-02-16T00:49:19.182Z,86.63
2018-02-16T00:51:45.789Z,86.45
2018-02-16T00:54:12.489Z,86.03
2018-02-16T00:56:39.061Z,86.33
2018-02-16T00:59:05.712Z,86.46
2018-02-16T01:01:32.354Z,86.43
2018-02-16T01:03:58.955Z,86.41
2018-02-16T01:06:25.583Z,86.42
2018-02-16T01:08:52.207Z,86.52
2018-02-16T01:11:19.586Z,86.69
2018-02-16T01:13:46.158Z,86.57
2018-02-16T01:16:12.755Z,86.83
2018-02-16T01:18:39.423Z,86.96
2018-02-16T01:21:06.047Z,87.06
2018-02-16T01:23:32.662Z,87.07
2018-02-16T01:25:59.629Z,87.03
2018-02-16T01:28:26.313Z,86.97
2018-02-16T01:30:53.638Z,86.91
2018-02-16T01:33:21.133Z,86.86
2018-02-16T01:35:48.587Z,86.79
2018-02-16T01:38:15.199Z,86.18
2018-02-16T01:40:42.131Z,86.46
2018-02-16T01:43:08.731Z,86.74
2018-02-16T01:45:35.338Z,86.42
2018-02-16T01:48:02.697Z,86.37
2018-02-16T01:50:30.042Z,86.14
2018-02-16T01:52:57.382Z,85.97
2018-02-16T01:55:23.989Z,85.98
2018-02-16T01:57:50.598Z,86.06
2018-02-16T02:00:17.242Z,86.08
2018-02-16T02:02:44.007Z,85.98
2018-02-16T02:05:10.630Z,86.04
2018-02-16T02:07:37.248Z,85.87
2018-02-16T02:10:03.874Z,85.71
2018-02-16T02:12:31.221Z,85.86
2018-02-16T02:14:57.821Z,85.71
2018-02-16T02:17:24.416Z,86.03
2018-02-16T02:19:51.049Z,86.19
2018-02-16T02:22:17.666Z,85.91
2018-02-16T02:24:44.263Z,86.19
2018-02-16T02:27:10.873Z,85.94
2018-02-16T02:29:37.490Z,85.96
2018-02-16T02:32:04.831Z,86.10
2018-02-16T02:34:31.433Z,86.26
2018-02-16T02:36:58.026Z,86.33
2018-02-16T02:39:25.373Z,86.18
2018-02-16T02:41:53.320Z,85.87
2018-02-16T02:44:19.909Z,85.43
2018-02-16T02:46:46.517Z,85.48
2018-02-16T02:49:13.844Z,85.67
2018-02-16T02:51:41.235Z,85.92
2018-02-16T02:54:07.861Z,85.86
2018-02-16T02:56:35.339Z,85.69
2018-02-16T02:59:02.023Z,86.00
2018-02-16T03:01:28.616Z,85.67
2018-02-16T03:03:55.262Z,85.74
2018-02-16T03:06:22.114Z,85.99
2018-02-16T03:08:48.722Z,85.92
2018-02-16T03:11:15.326Z,85.90
2018-02-16T03:13:41.930Z,86.08
2018-02-16T03:16:08.524Z,86.14
2018-02-16T03:18:35.123Z,86.13
2018-02-16T03:21:01.708Z,86.14
2018-02-16T03:23:28.334Z,86.18
2018-02-16T03:25:54.942Z,85.88
2018-02-16T03:28:21.541Z,86.06
2018-02-16T03:30:48.155Z,86.25
2018-02-16T03:33:14.789Z,86.08
2018-02-16T03:35:41.375Z,86.27
2018-02-16T03:38:07.958Z,86.16
2018-02-16T03:40:34.943Z,86.07
2018-02-16T03:43:01.647Z,86.03
2018-02-16T03:45:28.231Z,85.87
2018-02-16T03:47:54.890Z,85.74
2018-02-16T03:50:21.498Z,85.55
2018-02-16T03:52:48.086Z,85.52
2018-02-16T03:55:15.430Z,85.48
2018-02-16T03:57:42.758Z,85.58
2018-02-16T04:00:09.361Z,85.38
2018-02-16T04:02:35.959Z,85.25
2018-02-16T04:05:03.334Z,85.12
2018-02-16T04:07:29.958Z,84.97
2018-02-16T04:09:56.542Z,85.08
2018-02-16T04:12:23.144Z,85.10
2018-02-16T04:14:50.454Z,85.06
2018-02-16T04:17:17.341Z,85.08
2018-02-16T04:19:43.994Z,85.04
2018-02-16T04:22:10.618Z,85.04
2018-02-16T04:24:37.242Z,85.01
2018-02-16T04:27:04.582Z,84.88
2018-02-16T04:29:31.947Z,84.92
2018-02-16T04:31:58.576Z,84.85
2018-02-16T04:34:26.079Z,84.91
2018-02-16T04:36:52.661Z,84.73
2018-02-16T04:39:20.290Z,84.66
2018-02-16T04:41:46.903Z,84.73
2018-02-16T04:44:13.488Z,84.46
2018-02-16T04:46:40.846Z,84.53
2018-02-16T04:49:07.423Z,84.60
2018-02-16T04:51:34.009Z,84.60
2018-02-16T04:54:00.631Z,84.79
2018-02-16T04:56:27.282Z,84.80
2018-02-16T04:58:55.334Z,84.83
2018-02-16T05:01:21.957Z,84.81
2018-02-16T05:03:48.548Z,84.75
2018-02-16T05:06:15.905Z,84.92
2018-02-16T05:08:43.242Z,85.00
2018-02-16T05:11:09.862Z,84.73
2018-02-16T05:13:36.485Z,84.67
2018-02-16T05:16:03.113Z,84.74
2018-02-16T05:18:29.734Z,84.62
2018-02-16T05:20:56.330Z,84.62
2018-02-16T05:23:23.828Z,84.81
2018-02-16T05:25:50.394Z,84.74
2018-02-16T05:28:17.002Z,84.73
2018-02-16T05:30:43.661Z,84.65
2018-02-16T05:33:10.240Z,84.50
2018-02-16T05:35:36.839Z,84.34
2018-02-16T05:38:03.511Z,84.08
2018-02-16T05:40:30.117Z,84.05
2018-02-16T05:42:56.768Z,84.13
2018-02-16T05:45:23.375Z,84.07
2018-02-16T05:47:49.999Z,84.05
2018-02-16T05:50:16.602Z,84.07
2018-02-16T05:52:43.191Z,84.04
2018-02-16T05:55:09.806Z,84.03
2018-02-16T05:57:36.439Z,84.00
2018-02-16T06:00:03.826Z,83.97
2018-02-16T06:02:30.524Z,84.16
2018-02-16T06:04:57.131Z,84.25
2018-02-16T06:07:23.837Z,84.32
2018-02-16T06:09:50.410Z,84.35
2018-02-16T06:12:17.012Z,84.35
2018-02-16T06:14:43.616Z,84.41
2018-02-16T06:17:10.209Z,84.63
2018-02-16T06:19:36.831Z,84.63
2018-02-16T06:22:03.541Z,84.62
2018-02-16T06:24:30.137Z,84.61
2018-02-16T06:26:56.755Z,84.66
2018-02-16T06:29:23.344Z,84.73
2018-02-16T06:31:49.977Z,84.85
2018-02-16T06:34:17.297Z,84.81
2018-02-16T06:36:43.939Z,84.79
2018-02-16T06:39:10.571Z,84.73
2018-02-16T06:41:37.157Z,84.80
2018-02-16T06:44:03.745Z,84.76
2018-02-16T06:46:30.484Z,84.90
2018-02-16T06:48:57.075Z,84.98
2018-02-16T06:51:23.789Z,84.96
2018-02-16T06:53:51.148Z,84.91
2018-02-16T06:56:18.141Z,84.97
2018-02-16T06:58:44.732Z,85.14
2018-02-16T07:01:11.362Z,84.44
2018-02-16T07:03:38.710Z,84.62
2018-02-16T07:06:05.311Z,84.83
2018-02-16T07:08:31.947Z,85.08
2018-02-16T07:10:58.535Z,84.59
2018-02-16T07:13:25.170Z,84.38
2018-02-16T07:15:51.762Z,84.52
2018-02-16T07:18:18.440Z,84.66
2018-02-16T07:20:45.791Z,84.80
2018-02-16T07:23:13.220Z,84.78
2018-02-16T07:25:39.795Z,84.67
2018-02-16T07:28:06.423Z,84.56
2018-02-16T07:30:33.833Z,84.48
2018-02-16T07:33:00.410Z,84.29
2018-02-16T07:35:27.762Z,84.13
2018-02-16T07:37:55.099Z,84.01
2018-02-16T07:40:21.742Z,84.15
2018-02-16T07:42:48.450Z,84.15
2018-02-16T07:45:15.070Z,84.20
2018-02-16T07:47:41.695Z,84.17
2018-02-16T07:50:08.556Z,84.08
2018-02-16T07:52:35.192Z,84.05
2018-02-16T07:55:01.857Z,83.99
2018-02-16T07:57:28.492Z,83.93
2018-02-16T07:59:55.098Z,83.89
2018-02-16T08:02:21.715Z,83.78
2018-02-16T08:04:48.345Z,83.97
2018-02-16T08:07:14.955Z,83.81
2018-02-16T08:09:41.765Z,83.82
2018-02-16T08:12:08.386Z,83.46
2018-02-16T08:14:34.980Z,83.31
2018-02-16T08:17:02.482Z,83.20
2018-02-16T08:19:29.087Z,83.22
2018-02-16T08:21:55.708Z,83.17
2018-02-16T08:24:22.384Z,83.01
2018-02-16T08:26:49.988Z,82.65
2018-02-16T08:29:16.621Z,82.13
2018-02-16T08:31:43.202Z,81.55
2018-02-16T08:34:10.542Z,80.88
2018-02-16T08:36:37.886Z,80.70
2018-02-16T08:39:04.541Z,80.27
2018-02-16T08:41:31.891Z,78.74
2018-02-16T08:43:59.237Z,76.84
2018-02-16T08:46:26.618Z,76.88
2018-02-16T08:48:53.990Z,76.79
2018-02-16T08:51:20.585Z,77.28
2018-02-16T08:53:47.191Z,76.88
2018-02-16T08:56:13.786Z,77.44
2018-02-16T08:58:40.398Z,77.54
2018-02-16T09:01:06.974Z,77.11
2018-02-16T09:03:33.590Z,76.62
2018-02-16T09:06:00.979Z,75.14
2018-02-16T09:08:28.342Z,74.17
2018-02-16T09:10:54.963Z,69.89
2018-02-16T09:13:21.563Z,67.94
2018-02-16T09:15:48.914Z,67.41
2018-02-16T09:18:15.551Z,68.11
2018-02-16T09:20:42.156Z,66.61
2018-02-16T09:23:08.791Z,67.40
2018-02-16T09:25:35.390Z,67.02
2018-02-16T09:28:02.121Z,66.90
2018-02-16T09:30:29.717Z,66.32
2018-02-16T09:32:56.355Z,65.06
2018-02-16T09:35:22.964Z,64.85
2018-02-16T09:37:49.609Z,66.53
2018-02-16T09:40:18.064Z,67.58
2018-02-16T09:42:44.646Z,67.57
2018-02-16T09:45:12.054Z,68.37
2018-02-16T09:47:39.382Z,70.40
2018-02-16T09:50:06.005Z,71.93
2018-02-16T09:52:32.677Z,73.53
2018-02-16T09:55:00.390Z,73.97
2018-02-16T09:57:27.011Z,74.72
2018-02-16T09:59:53.620Z,75.33
2018-02-16T10:02:20.266Z,75.12
2018-02-16T10:04:46.899Z,75.41
2018-02-16T10:07:14.322Z,75.09
2018-02-16T10:09:41.027Z,75.11
2018-02-16T10:12:07.654Z,75.01
2018-02-16T10:14:34.281Z,75.86
2018-02-16T10:17:01.718Z,75.20
2018-02-16T10:19:28.370Z,75.46
2018-02-16T10:21:54.986Z,75.79
2018-02-16T10:24:21.632Z,76.03
2018-02-16T10:26:48.274Z,75.34
2018-02-16T10:29:15.709Z,75.25
2018-02-16T10:31:42.331Z,75.49
2018-02-16T10:34:08.934Z,75.92
2018-02-16T10:36:35.579Z,76.31
2018-02-16T10:39:02.234Z,76.32
2018-02-16T10:41:29.084Z,76.37
2018-02-16T10:43:55.675Z,75.42
2018-02-16T10:46:22.510Z,75.18
2018-02-16T10:48:49.227Z,74.99
2018-02-16T10:51:15.791Z,74.57
2018-02-16T10:53:42.393Z,73.18
2018-02-16T10:56:09.075Z,73.14
2018-02-16T10:58:35.979Z,72.98
2018-02-16T11:01:08.579Z,72.04
2018-02-16T11:03:38.182Z,72.46
2018-02-16T11:06:11.559Z,72.31
2018-02-16T11:08:44.237Z,71.74
2018-02-16T11:11:10.884Z,71.60
2018-02-16T11:13:38.254Z,71.42
2018-02-16T11:16:05.586Z,71.62
2018-02-16T11:18:32.218Z,71.68
2018-02-16T11:20:58.845Z,70.98
2018-02-16T11:23:25.462Z,70.79
2018-02-16T11:25:52.057Z,70.82
2018-02-16T11:28:18.638Z,70.23
2018-02-16T11:30:45.267Z,69.90
2018-02-16T11:33:11.978Z,70.19
2018-02-16T11:35:38.590Z,68.30
2018-02-16T11:38:05.955Z,66.90
2018-02-16T11:40:32.602Z,67.62
2018-02-16T11:42:59.196Z,64.08
2018-02-16T11:45:25.852Z,62.35
2018-02-16T11:47:52.489Z,61.58
2018-02-16T11:50:19.130Z,60.82
2018-02-16T11:52:46.488Z,60.10
2018-02-16T11:55:13.170Z,59.29
2018-02-16T11:57:39.822Z,59.68
2018-02-16T12:00:06.470Z,58.64
2018-02-16T12:02:33.445Z,58.13
2018-02-16T12:05:00.825Z,57.66
2018-02-16T12:07:27.451Z,58.82
2018-02-16T12:09:54.822Z,58.75
2018-02-16T12:12:21.451Z,57.92
2018-02-16T12:14:48.086Z,59.08
2018-02-16T12:17:14.743Z,58.83
2018-02-16T12:19:41.360Z,58.56
2018-02-16T12:22:08.012Z,57.95
2018-02-16T12:24:34.666Z,57.74
2018-02-16T12:27:01.336Z,59.71
2018-02-16T12:29:27.986Z,59.38
2018-02-16T12:31:54.615Z,59.82
2018-02-16T12:34:21.203Z,61.42
2018-02-16T12:36:47.834Z,63.18
2018-02-16T12:39:14.468Z,63.87
2018-02-16T12:41:41.132Z,63.75
2018-02-16T12:44:07.757Z,64.73
2018-02-16T12:46:34.363Z,63.06
2018-02-16T12:49:01.068Z,63.97
2018-02-16T12:51:27.713Z,63.89
2018-02-16T12:53:54.355Z,64.08
2018-02-16T12:56:21.043Z,62.84
2018-02-16T12:58:47.710Z,62.26
2018-02-16T13:01:14.359Z,62.91
2018-02-16T13:03:41.017Z,63.06
2018-02-16T13:06:07.701Z,60.93
2018-02-16T13:08:34.379Z,61.70
2018-02-16T13:11:02.327Z,61.03
2018-02-16T13:13:29.877Z,61.68
2018-02-16T13:15:56.581Z,60.85
2018-02-16T13:18:23.207Z,60.73
2018-02-16T13:20:49.847Z,59.98
2018-02-16T13:23:16.561Z,61.61
2018-02-16T13:25:43.206Z,60.47
2018-02-16T13:28:09.941Z,61.32
2018-02-16T13:30:37.299Z,61.99
2018-02-16T13:33:03.994Z,61.27
2018-02-16T13:35:30.626Z,62.02
2018-02-16T13:37:57.252Z,61.30
2018-02-16T13:40:23.890Z,61.46
2018-02-16T13:42:50.574Z,61.78
2018-02-16T13:45:17.224Z,61.09
2018-02-16T13:47:43.839Z,61.33
2018-02-16T13:50:11.229Z,60.77
2018-02-16T13:52:38.591Z,60.18
2018-02-16T13:55:06.046Z,59.18
2018-02-16T13:57:32.676Z,58.56
2018-02-16T14:00:00.974Z,57.16
2018-02-16T14:02:28.355Z,56.80
2018-02-16T14:04:55.024Z,58.34
2018-02-16T14:07:21.659Z,58.42
2018-02-16T14:09:48.278Z,58.75
2018-02-16T14:12:15.783Z,58.90
2018-02-16T14:14:43.208Z,59.07
2018-02-16T14:17:09.880Z,59.34
2018-02-16T14:19:37.230Z,59.11
2018-02-16T14:22:03.904Z,58.79
2018-02-16T14:24:31.270Z,58.12
2018-02-16T14:26:57.941Z,58.52
2018-02-16T14:29:24.542Z,58.11
2018-02-16T14:31:51.152Z,57.34
2018-02-16T14:34:18.535Z,56.60
2018-02-16T14:36:45.171Z,57.15
2018-02-16T14:39:11.800Z,57.88
2018-02-16T14:41:38.397Z,56.45
2018-02-16T14:44:05.196Z,57.01
2018-02-16T14:46:31.848Z,58.30
2018-02-16T14:48:58.459Z,59.30
2018-02-16T14:51:25.095Z,59.68
2018-02-16T14:53:51.749Z,59.17
2018-02-16T14:56:18.366Z,59.97
2018-02-16T14:58:45.133Z,59.86
2018-02-16T15:01:11.864Z,60.77
2018-02-16T15:03:38.538Z,59.92
2018-02-16T15:06:05.210Z,60.68
2018-02-16T15:08:31.846Z,60.56
2018-02-16T15:10:59.207Z,60.52
2018-02-16T15:13:25.858Z,58.77
2018-02-16T15:15:52.530Z,59.01
2018-02-16T15:18:19.179Z,58.89
2018-02-16T15:20:45.821Z,60.07
2018-02-16T15:23:13.230Z,60.50
2018-02-16T15:25:39.864Z,60.91
2018-02-16T15:28:06.572Z,59.48
2018-02-16T15:30:34.135Z,62.06
2018-02-16T15:33:00.772Z,64.24
2018-02-16T15:35:28.208Z,64.90
2018-02-16T15:37:54.858Z,66.02
2018-02-16T15:40:22.224Z,66.23
2018-02-16T15:42:48.810Z,67.09
2018-02-16T15:45:15.458Z,67.51
2018-02-16T15:47:42.091Z,67.08
2018-02-16T15:50:08.750Z,66.91
2018-02-16T15:52:36.131Z,67.44
2018-02-16T15:55:03.523Z,68.91
2018-02-16T15:57:30.119Z,68.83
2018-02-16T15:59:57.903Z,69.05
2018-02-16T16:02:24.527Z,69.34
2018-02-16T16:04:51.162Z,69.98
2018-02-16T16:07:17.747Z,69.79
2018-02-16T16:09:44.359Z,69.53
2018-02-16T16:12:11.002Z,69.31
2018-02-16T16:14:37.602Z,69.37
2018-02-16T16:17:04.950Z,69.53
2018-02-16T16:19:31.542Z,69.29
2018-02-16T16:21:58.180Z,68.32
2018-02-16T16:24:24.790Z,66.94
2018-02-16T16:26:51.447Z,67.61
2018-02-16T16:29:18.027Z,68.77
2018-02-16T16:31:45.389Z,69.19
2018-02-16T16:34:12.032Z,68.42
2018-02-16T16:36:39.428Z,69.19
2018-02-16T16:39:06.080Z,69.49
2018-02-16T16:41:32.713Z,70.89
2018-02-16T16:43:59.399Z,71.22
2018-02-16T16:46:26.055Z,71.71
2018-02-16T16:48:52.689Z,72.84
2018-02-16T16:51:19.326Z,73.48
2018-02-16T16:53:45.971Z,73.87
2018-02-16T16:56:12.593Z,74.97
2018-02-16T16:58:40.006Z,74.58
2018-02-16T17:01:06.649Z,74.30
2018-02-16T17:03:33.270Z,75.34
2018-02-16T17:05:59.866Z,76.08
2018-02-16T17:08:27.296Z,76.58
2018-02-16T17:10:54.145Z,76.91
2018-02-16T17:13:20.770Z,77.35
2018-02-16T17:15:48.177Z,76.75
2018-02-16T17:18:14.842Z,76.80
2018-02-16T17:20:41.466Z,76.49
2018-02-16T17:23:08.075Z,76.66
2018-02-16T17:25:34.760Z,76.36
2018-02-16T17:28:01.477Z,76.46
2018-02-16T17:30:28.082Z,75.75
2018-02-16T17:32:54.746Z,75.28
2018-02-16T17:35:21.387Z,75.81
2018-02-16T17:37:48.003Z,76.20
2018-02-16T17:40:14.599Z,76.69
2018-02-16T17:42:41.242Z,76.92
2018-02-16T17:45:07.922Z,76.58
2018-02-16T17:47:34.548Z,76.94
2018-02-16T17:50:01.159Z,76.73
2018-02-16T17:52:28.558Z,76.70
2018-02-16T17:54:55.207Z,77.19
2018-02-16T17:57:21.883Z,76.72
2018-02-16T17:59:48.551Z,76.75
2018-02-16T18:02:15.256Z,76.95
2018-02-16T18:04:41.917Z,77.03
2018-02-16T18:07:09.292Z,77.16
2018-02-16T18:09:36.008Z,77.28
2018-02-16T18:12:02.695Z,77.33
2018-02-16T18:14:29.467Z,77.25
2018-02-16T18:16:56.178Z,77.32
2018-02-16T18:19:23.546Z,77.66
2018-02-16T18:21:50.179Z,77.32
2018-02-16T18:24:16.849Z,77.13
2018-02-16T18:26:44.214Z,77.82
2018-02-16T18:29:10.998Z,77.89
2018-02-16T18:31:38.338Z,76.67
2018-02-16T18:34:05.098Z,76.84
2018-02-16T18:36:31.797Z,76.52
2018-02-16T18:38:58.466Z,76.79
2018-02-16T18:41:25.199Z,77.18
2018-02-16T18:43:51.864Z,77.33
2018-02-16T18:46:18.556Z,77.43
2018-02-16T18:48:45.239Z,77.66
2018-02-16T18:51:11.925Z,78.15
2018-02-16T18:53:38.549Z,78.25
2018-02-16T18:56:05.350Z,78.19
2018-02-16T18:58:31.987Z,78.06
2018-02-16T19:00:58.629Z,78.17
2018-02-16T19:03:25.264Z,78.10
2018-02-16T19:05:51.864Z,79.03
2018-02-16T19:08:18.516Z,79.56
2018-02-16T19:10:45.174Z,79.25
2018-02-16T19:13:11.811Z,78.68
2018-02-16T19:15:38.464Z,77.56
2018-02-16T19:18:05.202Z,77.40
2018-02-16T19:20:31.931Z,78.03
2018-02-16T19:22:58.585Z,78.21
2018-02-16T19:25:25.263Z,77.03
2018-02-16T19:27:52.593Z,76.88
2018-02-16T19:30:19.277Z,76.65
2018-02-16T19:32:45.873Z,77.11
2018-02-16T19:35:13.344Z,77.79
2018-02-16T19:37:40.808Z,78.30
2018-02-16T19:40:08.219Z,78.90
2018-02-16T19:42:34.870Z,78.93
2018-02-16T19:45:01.524Z,78.39
2018-02-16T19:47:28.193Z,78.76
2018-02-16T19:49:54.814Z,79.06
2018-02-16T19:52:21.464Z,79.14
2018-02-16T19:54:48.052Z,79.01
2018-02-16T19:57:14.686Z,78.49
2018-02-16T19:59:41.295Z,78.54
2018-02-16T20:02:07.978Z,78.69
2018-02-16T20:04:34.705Z,77.50
2018-02-16T20:07:01.397Z,76.78
2018-02-16T20:09:28.065Z,76.99
2018-02-16T20:11:54.715Z,77.37
2018-02-16T20:14:21.379Z,78.32
2018-02-16T20:16:48.063Z,79.23
2018-02-16T20:19:15.545Z,79.90
2018-02-16T20:21:42.304Z,79.24
2018-02-16T20:24:09.696Z,79.42
2018-02-16T20:26:36.350Z,79.46
2018-02-16T20:29:03.007Z,79.19
2018-02-16T20:31:29.701Z,78.82
2018-02-16T20:33:56.415Z,79.10
2018-02-16T20:36:23.065Z,79.33
2018-02-16T20:38:49.716Z,78.42
2018-02-16T20:41:16.352Z,78.60
2018-02-16T20:43:42.967Z,79.33
2018-02-16T20:46:09.679Z,79.62
2018-02-16T20:48:36.428Z,79.20
2018-02-16T20:51:03.087Z,78.89
2018-02-16T20:53:29.784Z,79.03
2018-02-16T20:55:56.414Z,78.79
2018-02-16T20:58:23.051Z,79.13
2018-02-16T21:00:49.762Z,79.28
2018-02-16T21:03:16.399Z,80.54
2018-02-16T21:05:43.801Z,80.87
2018-02-16T21:08:10.460Z,81.25
2018-02-16T21:10:37.067Z,81.27
2018-02-16T21:13:03.779Z,81.05
2018-02-16T21:15:30.411Z,80.91
2018-02-16T21:17:57.176Z,81.12
2018-02-16T21:20:23.878Z,81.41
2018-02-16T21:22:50.615Z,81.46
2018-02-16T21:25:18.018Z,81.30
2018-02-16T21:27:44.658Z,81.36
2018-02-16T21:30:11.292Z,81.36
2018-02-16T21:32:37.892Z,81.24
2018-02-16T21:35:05.303Z,81.20
2018-02-16T21:37:32.732Z,80.20
2018-02-16T21:39:59.371Z,79.82
2018-02-16T21:42:26.058Z,79.91
2018-02-16T21:44:52.667Z,80.18
2018-02-16T21:47:20.049Z,80.52
2018-02-16T21:49:46.670Z,80.01
2018-02-16T21:52:13.293Z,80.05
2018-02-16T21:54:39.898Z,80.40
2018-02-16T21:57:06.502Z,79.89
2018-02-16T21:59:33.166Z,80.03
2018-02-16T22:02:00.071Z,80.08
2018-02-16T22:04:26.679Z,80.25
2018-02-16T22:06:53.330Z,81.05
2018-02-16T22:09:19.959Z,81.00
2018-02-16T22:11:47.301Z,81.25
2018-02-16T22:14:14.104Z,81.04
2018-02-16T22:16:40.694Z,81.06
2018-02-16T22:19:07.364Z,80.97
2018-02-16T22:21:34.007Z,80.81
2018-02-16T22:24:01.398Z,80.75
2018-02-16T22:26:28.111Z,80.18
2018-02-16T22:28:56.366Z,79.92
2018-02-16T22:31:22.998Z,79.42
2018-02-16T22:33:49.650Z,80.32
2018-02-16T22:36:16.278Z,80.66
2018-02-16T22:38:42.911Z,80.73
2018-02-16T22:41:09.586Z,80.61
2018-02-16T22:43:36.954Z,79.91
2018-02-16T22:46:03.569Z,79.22
2018-02-16T22:48:30.930Z,79.05
2018-02-16T22:50:58.323Z,78.89
2018-02-16T22:53:25.403Z,79.39
2018-02-16T22:55:52.055Z,78.98
2018-02-16T22:58:19.415Z,78.73
2018-02-16T23:00:46.778Z,79.01
2018-02-16T23:03:13.398Z,79.18
2018-02-16T23:05:40.774Z,79.61
2018-02-16T23:08:07.384Z,79.81
2018-02-16T23:10:34.026Z,79.30
2018-02-16T23:13:01.394Z,79.19
2018-02-16T23:15:28.763Z,78.18
2018-02-16T23:17:55.380Z,78.13
2018-02-16T23:20:22.022Z,78.22
2018-02-16T23:22:49.370Z,77.88
2018-02-16T23:25:15.986Z,78.17
2018-02-16T23:27:42.620Z,78.55
2018-02-16T23:30:10.026Z,78.85
2018-02-16T23:32:36.685Z,78.98
2018-02-16T23:35:03.287Z,78.01
2018-02-16T23:37:30.645Z,78.81
2018-02-16T23:39:58.052Z,79.38
2018-02-16T23:42:24.611Z,79.49
2018-02-16T23:44:51.321Z,79.74
2018-02-16T23:47:17.946Z,80.00
2018-02-16T23:49:45.274Z,79.67
2018-02-16T23:52:11.901Z,79.25
2018-02-16T23:54:38.655Z,79.24
2018-02-16T23:57:05.326Z,79.90
2018-02-16T23:59:32.741Z,79.32
